sensor_id;sensor_type;location;lat;lon;timestamp;P1;durP1;ratioP1;P2;durP2;ratioP2
70073;SDS011;57445;51.058;3.698;2022-10-16T00:00:30;2.05;;;0.95;;
70073;SDS011;57445;51.058;3.698;2022-10-16T00:02:58;5.45;;;1.20;;
70073;SDS011;57445;51.058;3.698;2022-10-16T00:05:39;2.50;;;1.30;;
70073;SDS011;57445;51.058;3.698;2022-10-16T00:08:10;3.33;;;1.27;;
70073;SDS011;57445;51.058;3.698;2022-10-16T00:10:38;2.33;;;1.10;;
70073;SDS011;57445;51.058;3.698;2022-10-16T00:13:07;5.43;;;1.45;;
70073;SDS011;57445;51.058;3.698;2022-10-16T00:15:35;3.05;;;1.30;;
70073;SDS011;57445;51.058;3.698;2022-10-16T00:18:09;5.20;;;1.63;;
70073;SDS011;57445;51.058;3.698;2022-10-16T00:20:37;3.80;;;1.42;;
70073;SDS011;57445;51.058;3.698;2022-10-16T00:23:07;3.25;;;1.30;;
70073;SDS011;57445;51.058;3.698;2022-10-16T00:25:37;3.25;;;1.58;;
70073;SDS011;57445;51.058;3.698;2022-10-16T00:28:10;3.40;;;1.45;;
70073;SDS011;57445;51.058;3.698;2022-10-16T00:30:37;3.40;;;1.52;;
70073;SDS011;57445;51.058;3.698;2022-10-16T00:33:05;3.72;;;2.03;;
70073;SDS011;57445;51.058;3.698;2022-10-16T00:35:33;3.67;;;1.80;;
70073;SDS011;57445;51.058;3.698;2022-10-16T00:38:01;4.63;;;1.73;;
70073;SDS011;57445;51.058;3.698;2022-10-16T00:40:33;3.58;;;1.52;;
70073;SDS011;57445;51.058;3.698;2022-10-16T00:43:02;3.10;;;1.60;;
70073;SDS011;57445;51.058;3.698;2022-10-16T00:45:31;4.00;;;1.60;;
70073;SDS011;57445;51.058;3.698;2022-10-16T00:47:59;3.33;;;1.50;;
70073;SDS011;57445;51.058;3.698;2022-10-16T00:50:27;6.07;;;1.88;;
70073;SDS011;57445;51.058;3.698;2022-10-16T00:52:57;3.65;;;1.70;;
70073;SDS011;57445;51.058;3.698;2022-10-16T00:55:27;3.90;;;1.90;;
70073;SDS011;57445;51.058;3.698;2022-10-16T00:57:56;5.38;;;1.80;;
70073;SDS011;57445;51.058;3.698;2022-10-16T01:00:26;5.03;;;1.67;;
70073;SDS011;57445;51.058;3.698;2022-10-16T01:02:55;5.15;;;1.83;;
70073;SDS011;57445;51.058;3.698;2022-10-16T01:05:24;4.68;;;2.10;;
70073;SDS011;57445;51.058;3.698;2022-10-16T01:08:03;3.78;;;1.90;;
70073;SDS011;57445;51.058;3.698;2022-10-16T01:10:38;3.72;;;1.70;;
70073;SDS011;57445;51.058;3.698;2022-10-16T01:13:09;3.85;;;1.80;;
70073;SDS011;57445;51.058;3.698;2022-10-16T01:15:41;2.88;;;1.60;;
70073;SDS011;57445;51.058;3.698;2022-10-16T01:18:16;4.18;;;1.90;;
70073;SDS011;57445;51.058;3.698;2022-10-16T01:20:50;4.00;;;1.58;;
70073;SDS011;57445;51.058;3.698;2022-10-16T01:23:26;3.20;;;1.88;;
70073;SDS011;57445;51.058;3.698;2022-10-16T01:26:02;3.55;;;1.77;;
70073;SDS011;57445;51.058;3.698;2022-10-16T01:28:43;5.53;;;1.48;;
70073;SDS011;57445;51.058;3.698;2022-10-16T01:31:19;3.42;;;1.60;;
70073;SDS011;57445;51.058;3.698;2022-10-16T01:33:51;3.92;;;1.85;;
70073;SDS011;57445;51.058;3.698;2022-10-16T01:36:25;2.95;;;1.48;;
70073;SDS011;57445;51.058;3.698;2022-10-16T01:39:00;6.05;;;1.50;;
70073;SDS011;57445;51.058;3.698;2022-10-16T01:41:35;3.40;;;1.30;;
70073;SDS011;57445;51.058;3.698;2022-10-16T01:44:08;2.90;;;1.50;;
70073;SDS011;57445;51.058;3.698;2022-10-16T01:46:46;3.85;;;1.70;;
70073;SDS011;57445;51.058;3.698;2022-10-16T01:49:17;3.25;;;1.65;;
70073;SDS011;57445;51.058;3.698;2022-10-16T01:51:47;2.88;;;1.40;;
70073;SDS011;57445;51.058;3.698;2022-10-16T01:54:22;5.22;;;1.77;;
70073;SDS011;57445;51.058;3.698;2022-10-16T01:56:52;4.47;;;1.65;;
70073;SDS011;57445;51.058;3.698;2022-10-16T01:59:23;3.67;;;1.63;;
70073;SDS011;57445;51.058;3.698;2022-10-16T02:01:59;4.97;;;1.67;;
70073;SDS011;57445;51.058;3.698;2022-10-16T02:04:29;8.02;;;1.70;;
70073;SDS011;57445;51.058;3.698;2022-10-16T02:07:04;4.43;;;1.60;;
70073;SDS011;57445;51.058;3.698;2022-10-16T02:09:37;4.45;;;1.70;;
70073;SDS011;57445;51.058;3.698;2022-10-16T02:12:11;3.20;;;1.70;;
70073;SDS011;57445;51.058;3.698;2022-10-16T02:14:44;3.47;;;1.58;;
70073;SDS011;57445;51.058;3.698;2022-10-16T02:17:16;3.97;;;1.70;;
70073;SDS011;57445;51.058;3.698;2022-10-16T02:19:45;3.72;;;1.52;;
70073;SDS011;57445;51.058;3.698;2022-10-16T02:22:15;4.90;;;1.90;;
70073;SDS011;57445;51.058;3.698;2022-10-16T02:24:50;5.68;;;1.58;;
70073;SDS011;57445;51.058;3.698;2022-10-16T02:27:25;3.92;;;1.67;;
70073;SDS011;57445;51.058;3.698;2022-10-16T02:30:01;3.90;;;1.70;;
70073;SDS011;57445;51.058;3.698;2022-10-16T02:32:34;5.10;;;2.00;;
70073;SDS011;57445;51.058;3.698;2022-10-16T02:35:05;4.53;;;1.65;;
70073;SDS011;57445;51.058;3.698;2022-10-16T02:37:38;5.07;;;1.80;;
70073;SDS011;57445;51.058;3.698;2022-10-16T02:40:12;5.53;;;1.92;;
70073;SDS011;57445;51.058;3.698;2022-10-16T02:42:41;5.47;;;1.60;;
70073;SDS011;57445;51.058;3.698;2022-10-16T02:45:10;4.40;;;1.65;;
70073;SDS011;57445;51.058;3.698;2022-10-16T02:47:38;6.68;;;2.10;;
70073;SDS011;57445;51.058;3.698;2022-10-16T02:50:10;5.00;;;1.77;;
70073;SDS011;57445;51.058;3.698;2022-10-16T02:52:38;3.08;;;1.83;;
70073;SDS011;57445;51.058;3.698;2022-10-16T02:55:10;4.57;;;1.65;;
70073;SDS011;57445;51.058;3.698;2022-10-16T02:57:38;3.80;;;1.70;;
70073;SDS011;57445;51.058;3.698;2022-10-16T03:00:12;5.55;;;2.00;;
70073;SDS011;57445;51.058;3.698;2022-10-16T03:02:42;5.90;;;1.90;;
70073;SDS011;57445;51.058;3.698;2022-10-16T03:05:10;3.30;;;1.63;;
70073;SDS011;57445;51.058;3.698;2022-10-16T03:07:38;3.90;;;1.80;;
70073;SDS011;57445;51.058;3.698;2022-10-16T03:10:06;6.38;;;2.05;;
70073;SDS011;57445;51.058;3.698;2022-10-16T03:12:34;5.43;;;1.90;;
70073;SDS011;57445;51.058;3.698;2022-10-16T03:15:06;3.72;;;1.60;;
70073;SDS011;57445;51.058;3.698;2022-10-16T03:17:36;3.50;;;1.90;;
70073;SDS011;57445;51.058;3.698;2022-10-16T03:20:04;3.58;;;1.73;;
70073;SDS011;57445;51.058;3.698;2022-10-16T03:22:33;5.05;;;2.05;;
70073;SDS011;57445;51.058;3.698;2022-10-16T03:25:00;4.68;;;2.00;;
70073;SDS011;57445;51.058;3.698;2022-10-16T03:27:33;6.13;;;2.20;;
70073;SDS011;57445;51.058;3.698;2022-10-16T03:30:00;4.22;;;2.20;;
70073;SDS011;57445;51.058;3.698;2022-10-16T03:32:29;4.50;;;1.80;;
70073;SDS011;57445;51.058;3.698;2022-10-16T03:34:58;4.78;;;2.03;;
70073;SDS011;57445;51.058;3.698;2022-10-16T03:37:25;4.03;;;1.95;;
70073;SDS011;57445;51.058;3.698;2022-10-16T03:39:58;4.63;;;1.80;;
70073;SDS011;57445;51.058;3.698;2022-10-16T03:42:26;4.00;;;1.83;;
70073;SDS011;57445;51.058;3.698;2022-10-16T03:44:58;5.10;;;1.77;;
70073;SDS011;57445;51.058;3.698;2022-10-16T03:47:26;3.38;;;1.80;;
70073;SDS011;57445;51.058;3.698;2022-10-16T03:49:53;9.02;;;1.88;;
70073;SDS011;57445;51.058;3.698;2022-10-16T03:52:22;4.28;;;1.60;;
70073;SDS011;57445;51.058;3.698;2022-10-16T03:54:50;4.75;;;2.10;;
70073;SDS011;57445;51.058;3.698;2022-10-16T03:57:18;5.57;;;1.90;;
70073;SDS011;57445;51.058;3.698;2022-10-16T03:59:46;4.78;;;1.85;;
70073;SDS011;57445;51.058;3.698;2022-10-16T04:02:13;4.25;;;2.05;;
70073;SDS011;57445;51.058;3.698;2022-10-16T04:04:41;4.00;;;1.88;;
70073;SDS011;57445;51.058;3.698;2022-10-16T04:07:09;4.75;;;1.92;;
70073;SDS011;57445;51.058;3.698;2022-10-16T04:09:38;6.03;;;2.05;;
70073;SDS011;57445;51.058;3.698;2022-10-16T04:12:10;4.30;;;1.90;;
70073;SDS011;57445;51.058;3.698;2022-10-16T04:14:38;4.07;;;1.80;;
70073;SDS011;57445;51.058;3.698;2022-10-16T04:17:05;5.85;;;2.00;;
70073;SDS011;57445;51.058;3.698;2022-10-16T04:19:33;6.10;;;1.90;;
70073;SDS011;57445;51.058;3.698;2022-10-16T04:22:01;4.95;;;1.90;;
70073;SDS011;57445;51.058;3.698;2022-10-16T04:24:28;5.50;;;1.80;;
70073;SDS011;57445;51.058;3.698;2022-10-16T04:27:02;3.88;;;1.95;;
70073;SDS011;57445;51.058;3.698;2022-10-16T04:29:34;4.03;;;1.85;;
70073;SDS011;57445;51.058;3.698;2022-10-16T04:32:02;5.22;;;1.80;;
70073;SDS011;57445;51.058;3.698;2022-10-16T04:34:30;6.18;;;2.00;;
70073;SDS011;57445;51.058;3.698;2022-10-16T04:36:57;5.40;;;1.92;;
70073;SDS011;57445;51.058;3.698;2022-10-16T04:39:25;7.90;;;2.10;;
70073;SDS011;57445;51.058;3.698;2022-10-16T04:41:57;6.13;;;2.10;;
70073;SDS011;57445;51.058;3.698;2022-10-16T04:44:28;5.57;;;2.13;;
70073;SDS011;57445;51.058;3.698;2022-10-16T04:46:56;7.28;;;2.30;;
70073;SDS011;57445;51.058;3.698;2022-10-16T04:49:31;4.90;;;1.77;;
70073;SDS011;57445;51.058;3.698;2022-10-16T04:51:59;4.47;;;2.13;;
70073;SDS011;57445;51.058;3.698;2022-10-16T04:54:26;5.82;;;2.38;;
70073;SDS011;57445;51.058;3.698;2022-10-16T04:56:55;5.57;;;1.90;;
70073;SDS011;57445;51.058;3.698;2022-10-16T04:59:22;5.15;;;2.25;;
70073;SDS011;57445;51.058;3.698;2022-10-16T05:01:52;5.68;;;2.10;;
70073;SDS011;57445;51.058;3.698;2022-10-16T05:04:19;7.03;;;2.33;;
70073;SDS011;57445;51.058;3.698;2022-10-16T05:06:47;5.38;;;2.55;;
70073;SDS011;57445;51.058;3.698;2022-10-16T05:09:15;5.28;;;2.10;;
70073;SDS011;57445;51.058;3.698;2022-10-16T05:11:43;4.78;;;2.20;;
70073;SDS011;57445;51.058;3.698;2022-10-16T05:14:15;4.43;;;2.00;;
70073;SDS011;57445;51.058;3.698;2022-10-16T05:16:43;7.75;;;2.42;;
70073;SDS011;57445;51.058;3.698;2022-10-16T05:19:12;6.13;;;2.10;;
70073;SDS011;57445;51.058;3.698;2022-10-16T05:21:40;5.15;;;2.33;;
70073;SDS011;57445;51.058;3.698;2022-10-16T05:24:12;5.70;;;2.13;;
70073;SDS011;57445;51.058;3.698;2022-10-16T05:26:40;7.10;;;2.20;;
70073;SDS011;57445;51.058;3.698;2022-10-16T05:29:08;5.53;;;2.10;;
70073;SDS011;57445;51.058;3.698;2022-10-16T05:31:40;7.50;;;2.40;;
70073;SDS011;57445;51.058;3.698;2022-10-16T05:34:08;6.05;;;2.55;;
70073;SDS011;57445;51.058;3.698;2022-10-16T05:36:37;6.85;;;2.03;;
70073;SDS011;57445;51.058;3.698;2022-10-16T05:39:05;5.30;;;1.90;;
70073;SDS011;57445;51.058;3.698;2022-10-16T05:41:32;5.22;;;1.92;;
70073;SDS011;57445;51.058;3.698;2022-10-16T05:44:05;6.97;;;2.03;;
70073;SDS011;57445;51.058;3.698;2022-10-16T05:46:37;13.40;;;2.63;;
70073;SDS011;57445;51.058;3.698;2022-10-16T05:49:05;4.57;;;1.85;;
70073;SDS011;57445;51.058;3.698;2022-10-16T05:51:32;6.13;;;2.00;;
70073;SDS011;57445;51.058;3.698;2022-10-16T05:54:08;5.75;;;1.70;;
70073;SDS011;57445;51.058;3.698;2022-10-16T05:56:40;7.32;;;2.10;;
70073;SDS011;57445;51.058;3.698;2022-10-16T05:59:08;5.68;;;1.95;;
70073;SDS011;57445;51.058;3.698;2022-10-16T06:01:40;6.57;;;2.00;;
70073;SDS011;57445;51.058;3.698;2022-10-16T06:04:08;6.32;;;2.08;;
70073;SDS011;57445;51.058;3.698;2022-10-16T06:06:40;6.60;;;2.40;;
70073;SDS011;57445;51.058;3.698;2022-10-16T06:09:09;7.53;;;2.25;;
70073;SDS011;57445;51.058;3.698;2022-10-16T06:11:42;6.38;;;2.10;;
70073;SDS011;57445;51.058;3.698;2022-10-16T06:14:14;5.32;;;1.88;;
70073;SDS011;57445;51.058;3.698;2022-10-16T06:16:46;6.18;;;2.22;;
70073;SDS011;57445;51.058;3.698;2022-10-16T06:19:15;6.32;;;2.70;;
70073;SDS011;57445;51.058;3.698;2022-10-16T06:21:44;10.30;;;5.57;;
70073;SDS011;57445;51.058;3.698;2022-10-16T06:24:14;7.30;;;3.83;;
70073;SDS011;57445;51.058;3.698;2022-10-16T06:26:41;9.90;;;3.20;;
70073;SDS011;57445;51.058;3.698;2022-10-16T06:29:09;6.78;;;2.58;;
70073;SDS011;57445;51.058;3.698;2022-10-16T06:31:41;5.03;;;2.03;;
70073;SDS011;57445;51.058;3.698;2022-10-16T06:34:09;4.93;;;2.17;;
70073;SDS011;57445;51.058;3.698;2022-10-16T06:36:38;6.30;;;2.17;;
70073;SDS011;57445;51.058;3.698;2022-10-16T06:39:06;5.78;;;2.20;;
70073;SDS011;57445;51.058;3.698;2022-10-16T06:41:35;6.65;;;2.55;;
70073;SDS011;57445;51.058;3.698;2022-10-16T06:44:04;7.38;;;2.40;;
70073;SDS011;57445;51.058;3.698;2022-10-16T06:46:33;5.35;;;2.70;;
70073;SDS011;57445;51.058;3.698;2022-10-16T06:49:01;8.18;;;2.47;;
70073;SDS011;57445;51.058;3.698;2022-10-16T06:51:33;6.57;;;2.50;;
70073;SDS011;57445;51.058;3.698;2022-10-16T06:54:07;5.82;;;2.38;;
70073;SDS011;57445;51.058;3.698;2022-10-16T06:56:36;7.40;;;2.38;;
70073;SDS011;57445;51.058;3.698;2022-10-16T06:59:03;12.75;;;3.22;;
70073;SDS011;57445;51.058;3.698;2022-10-16T07:01:36;7.20;;;2.05;;
70073;SDS011;57445;51.058;3.698;2022-10-16T07:04:03;6.47;;;2.22;;
70073;SDS011;57445;51.058;3.698;2022-10-16T07:06:31;4.78;;;2.30;;
70073;SDS011;57445;51.058;3.698;2022-10-16T07:09:04;8.27;;;2.10;;
70073;SDS011;57445;51.058;3.698;2022-10-16T07:11:33;5.53;;;2.10;;
70073;SDS011;57445;51.058;3.698;2022-10-16T07:14:03;5.75;;;2.10;;
70073;SDS011;57445;51.058;3.698;2022-10-16T07:16:36;4.90;;;2.30;;
70073;SDS011;57445;51.058;3.698;2022-10-16T07:19:03;5.53;;;2.72;;
70073;SDS011;57445;51.058;3.698;2022-10-16T07:21:36;5.20;;;2.40;;
70073;SDS011;57445;51.058;3.698;2022-10-16T07:24:10;4.65;;;2.08;;
70073;SDS011;57445;51.058;3.698;2022-10-16T07:26:43;7.85;;;2.53;;
70073;SDS011;57445;51.058;3.698;2022-10-16T07:29:17;6.30;;;2.50;;
70073;SDS011;57445;51.058;3.698;2022-10-16T07:31:47;7.70;;;2.85;;
70073;SDS011;57445;51.058;3.698;2022-10-16T07:34:15;6.25;;;2.20;;
70073;SDS011;57445;51.058;3.698;2022-10-16T07:36:49;6.43;;;2.20;;
70073;SDS011;57445;51.058;3.698;2022-10-16T07:39:17;6.47;;;2.60;;
70073;SDS011;57445;51.058;3.698;2022-10-16T07:41:46;8.65;;;2.40;;
70073;SDS011;57445;51.058;3.698;2022-10-16T07:44:15;5.97;;;2.58;;
70073;SDS011;57445;51.058;3.698;2022-10-16T07:46:43;6.90;;;2.08;;
70073;SDS011;57445;51.058;3.698;2022-10-16T07:49:15;8.65;;;2.50;;
70073;SDS011;57445;51.058;3.698;2022-10-16T07:51:43;4.93;;;2.10;;
70073;SDS011;57445;51.058;3.698;2022-10-16T07:54:10;8.23;;;2.30;;
70073;SDS011;57445;51.058;3.698;2022-10-16T07:56:38;5.78;;;2.10;;
70073;SDS011;57445;51.058;3.698;2022-10-16T07:59:07;6.95;;;2.25;;
70073;SDS011;57445;51.058;3.698;2022-10-16T08:01:39;5.63;;;2.30;;
70073;SDS011;57445;51.058;3.698;2022-10-16T08:04:08;7.10;;;2.20;;
70073;SDS011;57445;51.058;3.698;2022-10-16T08:06:40;13.27;;;2.30;;
70073;SDS011;57445;51.058;3.698;2022-10-16T08:09:08;5.90;;;2.00;;
70073;SDS011;57445;51.058;3.698;2022-10-16T08:11:36;6.95;;;2.05;;
70073;SDS011;57445;51.058;3.698;2022-10-16T08:14:08;6.55;;;2.25;;
70073;SDS011;57445;51.058;3.698;2022-10-16T08:16:36;6.28;;;2.20;;
70073;SDS011;57445;51.058;3.698;2022-10-16T08:19:04;7.55;;;1.90;;
70073;SDS011;57445;51.058;3.698;2022-10-16T08:21:31;4.30;;;2.03;;
70073;SDS011;57445;51.058;3.698;2022-10-16T08:24:04;7.57;;;2.13;;
70073;SDS011;57445;51.058;3.698;2022-10-16T08:26:32;5.78;;;1.88;;
70073;SDS011;57445;51.058;3.698;2022-10-16T08:29:00;7.10;;;2.08;;
70073;SDS011;57445;51.058;3.698;2022-10-16T08:31:29;5.38;;;2.17;;
70073;SDS011;57445;51.058;3.698;2022-10-16T08:34:01;5.97;;;1.80;;
70073;SDS011;57445;51.058;3.698;2022-10-16T08:36:29;6.75;;;2.33;;
70073;SDS011;57445;51.058;3.698;2022-10-16T08:39:01;6.80;;;2.28;;
70073;SDS011;57445;51.058;3.698;2022-10-16T08:41:33;11.30;;;3.17;;
70073;SDS011;57445;51.058;3.698;2022-10-16T08:44:30;5.93;;;2.20;;
70073;SDS011;57445;51.058;3.698;2022-10-16T08:47:16;9.63;;;2.20;;
70073;SDS011;57445;51.058;3.698;2022-10-16T08:49:51;5.93;;;2.08;;
70073;SDS011;57445;51.058;3.698;2022-10-16T08:52:24;5.38;;;1.80;;
70073;SDS011;57445;51.058;3.698;2022-10-16T08:54:56;8.18;;;1.80;;
70073;SDS011;57445;51.058;3.698;2022-10-16T08:57:29;7.53;;;1.77;;
70073;SDS011;57445;51.058;3.698;2022-10-16T09:00:00;6.57;;;2.03;;
70073;SDS011;57445;51.058;3.698;2022-10-16T09:02:44;6.60;;;1.83;;
70073;SDS011;57445;51.058;3.698;2022-10-16T09:05:24;6.47;;;2.17;;
70073;SDS011;57445;51.058;3.698;2022-10-16T09:08:19;7.95;;;2.30;;
70073;SDS011;57445;51.058;3.698;2022-10-16T09:10:59;9.38;;;2.33;;
70073;SDS011;57445;51.058;3.698;2022-10-16T09:13:41;7.50;;;1.90;;
70073;SDS011;57445;51.058;3.698;2022-10-16T09:16:21;12.20;;;2.40;;
70073;SDS011;57445;51.058;3.698;2022-10-16T09:18:54;7.38;;;2.00;;
70073;SDS011;57445;51.058;3.698;2022-10-16T09:21:28;5.15;;;1.80;;
70073;SDS011;57445;51.058;3.698;2022-10-16T09:23:58;6.68;;;1.70;;
70073;SDS011;57445;51.058;3.698;2022-10-16T09:26:35;12.15;;;2.03;;
70073;SDS011;57445;51.058;3.698;2022-10-16T09:29:03;6.65;;;1.80;;
70073;SDS011;57445;51.058;3.698;2022-10-16T09:31:30;7.78;;;1.85;;
70073;SDS011;57445;51.058;3.698;2022-10-16T09:34:05;8.43;;;2.08;;
70073;SDS011;57445;51.058;3.698;2022-10-16T09:36:43;9.15;;;2.20;;
70073;SDS011;57445;51.058;3.698;2022-10-16T09:39:17;6.10;;;2.20;;
70073;SDS011;57445;51.058;3.698;2022-10-16T09:41:49;7.88;;;2.10;;
70073;SDS011;57445;51.058;3.698;2022-10-16T09:44:23;9.88;;;2.40;;
70073;SDS011;57445;51.058;3.698;2022-10-16T09:47:00;6.93;;;1.92;;
70073;SDS011;57445;51.058;3.698;2022-10-16T09:49:35;9.32;;;2.40;;
70073;SDS011;57445;51.058;3.698;2022-10-16T09:52:03;7.63;;;2.30;;
70073;SDS011;57445;51.058;3.698;2022-10-16T09:54:36;9.75;;;2.17;;
70073;SDS011;57445;51.058;3.698;2022-10-16T09:57:10;6.75;;;2.05;;
70073;SDS011;57445;51.058;3.698;2022-10-16T09:59:48;7.85;;;2.17;;
70073;SDS011;57445;51.058;3.698;2022-10-16T10:02:17;8.93;;;2.00;;
70073;SDS011;57445;51.058;3.698;2022-10-16T10:04:49;9.20;;;1.92;;
70073;SDS011;57445;51.058;3.698;2022-10-16T10:07:24;11.40;;;2.30;;
70073;SDS011;57445;51.058;3.698;2022-10-16T10:09:58;7.53;;;2.10;;
70073;SDS011;57445;51.058;3.698;2022-10-16T10:12:26;7.97;;;2.58;;
70073;SDS011;57445;51.058;3.698;2022-10-16T10:14:56;6.07;;;1.92;;
70073;SDS011;57445;51.058;3.698;2022-10-16T10:17:44;8.93;;;2.20;;
70073;SDS011;57445;51.058;3.698;2022-10-16T10:20:21;8.73;;;2.10;;
70073;SDS011;57445;51.058;3.698;2022-10-16T10:25:28;8.70;;;2.40;;
70073;SDS011;57445;51.058;3.698;2022-10-16T10:28:22;7.50;;;2.50;;
70073;SDS011;57445;51.058;3.698;2022-10-16T10:31:15;7.30;;;2.00;;
70073;SDS011;57445;51.058;3.698;2022-10-16T10:33:50;7.47;;;1.92;;
70073;SDS011;57445;51.058;3.698;2022-10-16T10:36:32;9.10;;;2.03;;
70073;SDS011;57445;51.058;3.698;2022-10-16T10:39:08;9.38;;;2.00;;
70073;SDS011;57445;51.058;3.698;2022-10-16T10:41:59;10.38;;;2.08;;
70073;SDS011;57445;51.058;3.698;2022-10-16T10:44:40;13.93;;;2.40;;
70073;SDS011;57445;51.058;3.698;2022-10-16T10:47:38;9.90;;;2.78;;
70073;SDS011;57445;51.058;3.698;2022-10-16T10:50:16;9.32;;;2.10;;
70073;SDS011;57445;51.058;3.698;2022-10-16T10:52:53;10.55;;;2.38;;
70073;SDS011;57445;51.058;3.698;2022-10-16T10:55:33;7.78;;;2.00;;
70073;SDS011;57445;51.058;3.698;2022-10-16T10:58:15;11.50;;;2.00;;
70073;SDS011;57445;51.058;3.698;2022-10-16T11:01:01;5.50;;;1.73;;
70073;SDS011;57445;51.058;3.698;2022-10-16T11:03:55;6.45;;;2.00;;
70073;SDS011;57445;51.058;3.698;2022-10-16T11:06:43;9.15;;;1.70;;
70073;SDS011;57445;51.058;3.698;2022-10-16T11:09:15;7.07;;;2.00;;
70073;SDS011;57445;51.058;3.698;2022-10-16T11:11:52;9.15;;;2.03;;
70073;SDS011;57445;51.058;3.698;2022-10-16T11:17:04;8.75;;;2.10;;
70073;SDS011;57445;51.058;3.698;2022-10-16T11:19:41;6.60;;;1.80;;
70073;SDS011;57445;51.058;3.698;2022-10-16T11:22:14;8.43;;;1.90;;
70073;SDS011;57445;51.058;3.698;2022-10-16T11:24:51;12.02;;;2.15;;
70073;SDS011;57445;51.058;3.698;2022-10-16T11:27:23;7.68;;;2.67;;
70073;SDS011;57445;51.058;3.698;2022-10-16T11:30:01;7.82;;;2.17;;
70073;SDS011;57445;51.058;3.698;2022-10-16T11:32:33;7.00;;;1.50;;
70073;SDS011;57445;51.058;3.698;2022-10-16T11:35:11;6.47;;;1.80;;
70073;SDS011;57445;51.058;3.698;2022-10-16T11:37:49;11.35;;;2.20;;
70073;SDS011;57445;51.058;3.698;2022-10-16T11:40:22;13.57;;;2.67;;
70073;SDS011;57445;51.058;3.698;2022-10-16T11:42:57;11.55;;;2.28;;
70073;SDS011;57445;51.058;3.698;2022-10-16T11:45:34;5.82;;;1.83;;
70073;SDS011;57445;51.058;3.698;2022-10-16T11:48:08;11.45;;;2.00;;
70073;SDS011;57445;51.058;3.698;2022-10-16T11:50:45;7.55;;;2.03;;
70073;SDS011;57445;51.058;3.698;2022-10-16T11:53:35;7.50;;;1.77;;
70073;SDS011;57445;51.058;3.698;2022-10-16T11:56:17;10.98;;;2.47;;
70073;SDS011;57445;51.058;3.698;2022-10-16T11:58:49;8.70;;;2.03;;
70073;SDS011;57445;51.058;3.698;2022-10-16T12:01:22;5.00;;;1.73;;
70073;SDS011;57445;51.058;3.698;2022-10-16T12:03:59;10.52;;;1.95;;
70073;SDS011;57445;51.058;3.698;2022-10-16T12:06:39;9.65;;;2.25;;
70073;SDS011;57445;51.058;3.698;2022-10-16T12:09:20;8.13;;;2.05;;
70073;SDS011;57445;51.058;3.698;2022-10-16T12:11:53;5.03;;;1.88;;
70073;SDS011;57445;51.058;3.698;2022-10-16T12:14:22;8.43;;;1.92;;
70073;SDS011;57445;51.058;3.698;2022-10-16T12:17:02;7.38;;;1.75;;
70073;SDS011;57445;51.058;3.698;2022-10-16T12:19:57;5.35;;;1.40;;
70073;SDS011;57445;51.058;3.698;2022-10-16T12:22:30;10.35;;;2.05;;
70073;SDS011;57445;51.058;3.698;2022-10-16T12:24:58;6.30;;;1.40;;
70073;SDS011;57445;51.058;3.698;2022-10-16T12:27:32;5.18;;;1.50;;
70073;SDS011;57445;51.058;3.698;2022-10-16T12:30:02;7.00;;;1.73;;
70073;SDS011;57445;51.058;3.698;2022-10-16T12:32:37;6.07;;;1.70;;
70073;SDS011;57445;51.058;3.698;2022-10-16T12:35:16;6.85;;;1.67;;
70073;SDS011;57445;51.058;3.698;2022-10-16T12:37:46;5.97;;;1.63;;
70073;SDS011;57445;51.058;3.698;2022-10-16T12:40:24;6.65;;;1.80;;
70073;SDS011;57445;51.058;3.698;2022-10-16T12:43:10;6.28;;;1.63;;
70073;SDS011;57445;51.058;3.698;2022-10-16T12:45:39;5.72;;;1.50;;
70073;SDS011;57445;51.058;3.698;2022-10-16T12:48:18;7.78;;;1.60;;
70073;SDS011;57445;51.058;3.698;2022-10-16T12:50:52;8.45;;;2.00;;
70073;SDS011;57445;51.058;3.698;2022-10-16T12:53:21;4.70;;;1.60;;
70073;SDS011;57445;51.058;3.698;2022-10-16T12:55:52;8.55;;;1.38;;
70073;SDS011;57445;51.058;3.698;2022-10-16T12:58:37;3.75;;;1.48;;
70073;SDS011;57445;51.058;3.698;2022-10-16T13:01:26;20.02;;;3.00;;
70073;SDS011;57445;51.058;3.698;2022-10-16T13:06:58;7.45;;;1.60;;
70073;SDS011;57445;51.058;3.698;2022-10-16T13:09:40;9.10;;;1.63;;
70073;SDS011;57445;51.058;3.698;2022-10-16T13:15:27;6.35;;;1.58;;
70073;SDS011;57445;51.058;3.698;2022-10-16T13:18:11;7.07;;;1.65;;
70073;SDS011;57445;51.058;3.698;2022-10-16T13:23:41;6.72;;;1.90;;
70073;SDS011;57445;51.058;3.698;2022-10-16T13:26:19;6.68;;;1.60;;
70073;SDS011;57445;51.058;3.698;2022-10-16T13:28:58;5.97;;;1.92;;
70073;SDS011;57445;51.058;3.698;2022-10-16T13:31:28;4.57;;;1.30;;
70073;SDS011;57445;51.058;3.698;2022-10-16T13:33:58;5.45;;;1.50;;
70073;SDS011;57445;51.058;3.698;2022-10-16T13:36:27;7.25;;;1.70;;
70073;SDS011;57445;51.058;3.698;2022-10-16T13:39:06;4.43;;;1.30;;
70073;SDS011;57445;51.058;3.698;2022-10-16T13:41:38;3.15;;;0.93;;
70073;SDS011;57445;51.058;3.698;2022-10-16T13:44:11;6.85;;;1.55;;
70073;SDS011;57445;51.058;3.698;2022-10-16T13:46:48;7.03;;;1.60;;
70073;SDS011;57445;51.058;3.698;2022-10-16T13:49:30;4.88;;;1.17;;
70073;SDS011;57445;51.058;3.698;2022-10-16T13:51:58;2.83;;;1.30;;
70073;SDS011;57445;51.058;3.698;2022-10-16T13:54:27;4.45;;;1.50;;
70073;SDS011;57445;51.058;3.698;2022-10-16T13:57:04;6.13;;;1.85;;
70073;SDS011;57445;51.058;3.698;2022-10-16T13:59:33;4.38;;;1.50;;
70073;SDS011;57445;51.058;3.698;2022-10-16T14:02:08;3.35;;;1.20;;
70073;SDS011;57445;51.058;3.698;2022-10-16T14:04:46;6.97;;;1.48;;
70073;SDS011;57445;51.058;3.698;2022-10-16T14:07:18;5.25;;;1.45;;
70073;SDS011;57445;51.058;3.698;2022-10-16T14:09:50;3.08;;;0.95;;
70073;SDS011;57445;51.058;3.698;2022-10-16T14:12:19;7.35;;;1.48;;
70073;SDS011;57445;51.058;3.698;2022-10-16T14:14:53;6.85;;;1.50;;
70073;SDS011;57445;51.058;3.698;2022-10-16T14:17:24;4.93;;;1.65;;
70073;SDS011;57445;51.058;3.698;2022-10-16T14:19:55;5.22;;;1.42;;
70073;SDS011;57445;51.058;3.698;2022-10-16T14:22:30;3.38;;;1.38;;
70073;SDS011;57445;51.058;3.698;2022-10-16T14:25:16;3.78;;;1.35;;
70073;SDS011;57445;51.058;3.698;2022-10-16T14:27:57;3.38;;;1.60;;
70073;SDS011;57445;51.058;3.698;2022-10-16T14:30:27;3.47;;;1.70;;
70073;SDS011;57445;51.058;3.698;2022-10-16T14:32:58;4.85;;;1.50;;
70073;SDS011;57445;51.058;3.698;2022-10-16T14:35:28;3.70;;;1.45;;
70073;SDS011;57445;51.058;3.698;2022-10-16T14:37:58;3.88;;;1.75;;
70073;SDS011;57445;51.058;3.698;2022-10-16T14:40:27;4.55;;;1.42;;
70073;SDS011;57445;51.058;3.698;2022-10-16T14:43:01;4.15;;;1.50;;
70073;SDS011;57445;51.058;3.698;2022-10-16T14:45:35;4.15;;;1.63;;
70073;SDS011;57445;51.058;3.698;2022-10-16T14:48:04;2.85;;;1.10;;
70073;SDS011;57445;51.058;3.698;2022-10-16T14:50:43;3.58;;;1.00;;
70073;SDS011;57445;51.058;3.698;2022-10-16T14:53:11;4.68;;;1.45;;
70073;SDS011;57445;51.058;3.698;2022-10-16T14:55:40;1.73;;;0.82;;
70073;SDS011;57445;51.058;3.698;2022-10-16T14:58:13;3.30;;;1.20;;
70073;SDS011;57445;51.058;3.698;2022-10-16T15:00:47;5.72;;;1.88;;
70073;SDS011;57445;51.058;3.698;2022-10-16T15:03:17;4.20;;;1.80;;
70073;SDS011;57445;51.058;3.698;2022-10-16T15:05:45;3.67;;;1.27;;
70073;SDS011;57445;51.058;3.698;2022-10-16T15:08:17;4.68;;;1.40;;
70073;SDS011;57445;51.058;3.698;2022-10-16T15:10:45;10.13;;;2.03;;
70073;SDS011;57445;51.058;3.698;2022-10-16T15:13:17;3.03;;;1.20;;
70073;SDS011;57445;51.058;3.698;2022-10-16T15:15:46;4.60;;;1.17;;
70073;SDS011;57445;51.058;3.698;2022-10-16T15:18:20;2.40;;;1.02;;
70073;SDS011;57445;51.058;3.698;2022-10-16T15:20:49;4.25;;;1.40;;
70073;SDS011;57445;51.058;3.698;2022-10-16T15:23:18;12.07;;;1.63;;
70073;SDS011;57445;51.058;3.698;2022-10-16T15:25:53;4.38;;;1.10;;
70073;SDS011;57445;51.058;3.698;2022-10-16T15:28:26;5.20;;;1.40;;
70073;SDS011;57445;51.058;3.698;2022-10-16T15:30:58;9.20;;;1.90;;
70073;SDS011;57445;51.058;3.698;2022-10-16T15:33:27;10.20;;;1.63;;